sensor_id;sensor_type;location;lat;lon;timestamp;P1;durP1;ratioP1;P2;durP2;ratioP2
27543;SDS011;17996;51.056;3.656;2023-04-24T00:01:47;32.10;;;19.55;;
27543;SDS011;17996;51.056;3.656;2023-04-24T00:04:13;40.50;;;21.40;;
27543;SDS011;17996;51.056;3.656;2023-04-24T00:06:41;37.67;;;22.00;;
27543;SDS011;17996;51.056;3.656;2023-04-24T00:09:08;43.53;;;21.75;;
27543;SDS011;17996;51.056;3.656;2023-04-24T00:11:36;38.60;;;21.75;;
27543;SDS011;17996;51.056;3.656;2023-04-24T00:14:02;44.90;;;21.95;;
27543;SDS011;17996;51.056;3.656;2023-04-24T00:16:28;43.92;;;21.23;;
27543;SDS011;17996;51.056;3.656;2023-04-24T00:18:54;40.10;;;21.45;;
27543;SDS011;17996;51.056;3.656;2023-04-24T00:21:20;31.92;;;20.25;;
27543;SDS011;17996;51.056;3.656;2023-04-24T00:23:46;28.35;;;20.65;;
27543;SDS011;17996;51.056;3.656;2023-04-24T00:26:13;31.30;;;19.65;;
27543;SDS011;17996;51.056;3.656;2023-04-24T00:28:39;30.25;;;20.30;;
27543;SDS011;17996;51.056;3.656;2023-04-24T00:31:04;32.45;;;20.25;;
27543;SDS011;17996;51.056;3.656;2023-04-24T00:33:30;28.42;;;19.15;;
27543;SDS011;17996;51.056;3.656;2023-04-24T00:35:56;32.03;;;19.80;;
27543;SDS011;17996;51.056;3.656;2023-04-24T00:38:21;25.77;;;18.42;;
27543;SDS011;17996;51.056;3.656;2023-04-24T00:40:47;20.50;;;16.70;;
27543;SDS011;17996;51.056;3.656;2023-04-24T00:43:15;24.88;;;18.90;;
27543;SDS011;17996;51.056;3.656;2023-04-24T00:45:41;24.13;;;17.83;;
27543;SDS011;17996;51.056;3.656;2023-04-24T00:48:07;23.73;;;16.38;;
27543;SDS011;17996;51.056;3.656;2023-04-24T00:50:33;21.38;;;16.40;;
27543;SDS011;17996;51.056;3.656;2023-04-24T00:53:00;20.60;;;14.38;;
27543;SDS011;17996;51.056;3.656;2023-04-24T00:55:26;17.98;;;11.88;;
27543;SDS011;17996;51.056;3.656;2023-04-24T00:57:52;18.40;;;12.68;;
27543;SDS011;17996;51.056;3.656;2023-04-24T01:00:18;22.60;;;13.68;;
27543;SDS011;17996;51.056;3.656;2023-04-24T01:02:44;15.63;;;12.73;;
27543;SDS011;17996;51.056;3.656;2023-04-24T01:05:11;19.80;;;13.80;;
27543;SDS011;17996;51.056;3.656;2023-04-24T01:07:38;21.40;;;14.48;;
27543;SDS011;17996;51.056;3.656;2023-04-24T01:10:06;23.90;;;14.75;;
27543;SDS011;17996;51.056;3.656;2023-04-24T01:12:33;28.30;;;14.60;;
27543;SDS011;17996;51.056;3.656;2023-04-24T01:14:59;23.08;;;14.63;;
27543;SDS011;17996;51.056;3.656;2023-04-24T01:17:24;19.10;;;14.10;;
27543;SDS011;17996;51.056;3.656;2023-04-24T01:19:50;17.90;;;14.52;;
27543;SDS011;17996;51.056;3.656;2023-04-24T01:22:18;20.02;;;13.98;;
27543;SDS011;17996;51.056;3.656;2023-04-24T01:24:45;21.42;;;14.07;;
27543;SDS011;17996;51.056;3.656;2023-04-24T01:27:11;19.83;;;15.68;;
27543;SDS011;17996;51.056;3.656;2023-04-24T01:29:37;18.20;;;15.23;;
27543;SDS011;17996;51.056;3.656;2023-04-24T01:32:03;20.70;;;16.15;;
27543;SDS011;17996;51.056;3.656;2023-04-24T01:34:30;25.40;;;17.02;;
27543;SDS011;17996;51.056;3.656;2023-04-24T01:36:56;23.33;;;17.33;;
27543;SDS011;17996;51.056;3.656;2023-04-24T01:39:22;22.42;;;16.95;;
27543;SDS011;17996;51.056;3.656;2023-04-24T01:41:50;21.88;;;17.92;;
27543;SDS011;17996;51.056;3.656;2023-04-24T01:44:17;22.10;;;16.92;;
27543;SDS011;17996;51.056;3.656;2023-04-24T01:46:43;20.55;;;18.02;;
27543;SDS011;17996;51.056;3.656;2023-04-24T01:49:09;24.02;;;17.52;;
27543;SDS011;17996;51.056;3.656;2023-04-24T01:51:35;23.02;;;17.10;;
27543;SDS011;17996;51.056;3.656;2023-04-24T01:54:01;25.85;;;18.83;;
27543;SDS011;17996;51.056;3.656;2023-04-24T01:56:28;26.83;;;18.52;;
27543;SDS011;17996;51.056;3.656;2023-04-24T01:58:55;26.63;;;18.63;;
27543;SDS011;17996;51.056;3.656;2023-04-24T02:01:23;30.33;;;20.10;;
27543;SDS011;17996;51.056;3.656;2023-04-24T02:03:50;27.50;;;19.15;;
27543;SDS011;17996;51.056;3.656;2023-04-24T02:06:15;26.83;;;19.02;;
27543;SDS011;17996;51.056;3.656;2023-04-24T02:08:41;22.70;;;19.42;;
27543;SDS011;17996;51.056;3.656;2023-04-24T02:11:10;25.67;;;19.52;;
27543;SDS011;17996;51.056;3.656;2023-04-24T02:13:36;21.92;;;19.27;;
27543;SDS011;17996;51.056;3.656;2023-04-24T02:16:01;25.98;;;20.00;;
27543;SDS011;17996;51.056;3.656;2023-04-24T02:18:27;22.52;;;18.70;;
27543;SDS011;17996;51.056;3.656;2023-04-24T02:20:53;22.35;;;18.45;;
27543;SDS011;17996;51.056;3.656;2023-04-24T02:23:19;24.08;;;20.35;;
27543;SDS011;17996;51.056;3.656;2023-04-24T02:25:45;29.90;;;20.83;;
27543;SDS011;17996;51.056;3.656;2023-04-24T02:28:11;26.00;;;19.60;;
27543;SDS011;17996;51.056;3.656;2023-04-24T02:30:36;25.02;;;20.13;;
27543;SDS011;17996;51.056;3.656;2023-04-24T02:33:02;23.70;;;18.95;;
27543;SDS011;17996;51.056;3.656;2023-04-24T02:35:28;25.67;;;18.42;;
27543;SDS011;17996;51.056;3.656;2023-04-24T02:37:54;25.98;;;19.17;;
27543;SDS011;17996;51.056;3.656;2023-04-24T02:40:19;25.60;;;19.88;;
27543;SDS011;17996;51.056;3.656;2023-04-24T02:42:45;30.58;;;16.55;;
27543;SDS011;17996;51.056;3.656;2023-04-24T02:45:11;21.38;;;13.93;;
27543;SDS011;17996;51.056;3.656;2023-04-24T02:47:36;15.50;;;8.88;;
27543;SDS011;17996;51.056;3.656;2023-04-24T02:50:02;17.80;;;8.23;;
27543;SDS011;17996;51.056;3.656;2023-04-24T02:52:28;17.70;;;8.68;;
27543;SDS011;17996;51.056;3.656;2023-04-24T02:54:54;16.77;;;8.10;;
27543;SDS011;17996;51.056;3.656;2023-04-24T02:57:19;19.48;;;8.05;;
27543;SDS011;17996;51.056;3.656;2023-04-24T02:59:45;25.58;;;8.15;;
27543;SDS011;17996;51.056;3.656;2023-04-24T03:02:11;22.08;;;7.70;;
27543;SDS011;17996;51.056;3.656;2023-04-24T03:04:37;23.40;;;6.82;;
27543;SDS011;17996;51.056;3.656;2023-04-24T03:07:02;19.02;;;7.25;;
27543;SDS011;17996;51.056;3.656;2023-04-24T03:09:29;20.17;;;9.55;;
27543;SDS011;17996;51.056;3.656;2023-04-24T03:11:55;20.38;;;8.55;;
27543;SDS011;17996;51.056;3.656;2023-04-24T03:14:21;20.52;;;8.50;;
27543;SDS011;17996;51.056;3.656;2023-04-24T03:16:47;16.77;;;9.02;;
27543;SDS011;17996;51.056;3.656;2023-04-24T03:19:12;19.50;;;9.93;;
27543;SDS011;17996;51.056;3.656;2023-04-24T03:21:38;27.00;;;10.23;;
27543;SDS011;17996;51.056;3.656;2023-04-24T03:24:06;25.15;;;11.90;;
27543;SDS011;17996;51.056;3.656;2023-04-24T03:26:33;23.98;;;12.57;;
27543;SDS011;17996;51.056;3.656;2023-04-24T03:28:59;28.80;;;12.70;;
27543;SDS011;17996;51.056;3.656;2023-04-24T03:31:24;23.70;;;12.15;;
27543;SDS011;17996;51.056;3.656;2023-04-24T03:33:50;25.40;;;13.57;;
27543;SDS011;17996;51.056;3.656;2023-04-24T03:36:16;23.88;;;14.20;;
27543;SDS011;17996;51.056;3.656;2023-04-24T03:38:42;31.20;;;14.95;;
27543;SDS011;17996;51.056;3.656;2023-04-24T03:41:08;34.72;;;16.65;;
27543;SDS011;17996;51.056;3.656;2023-04-24T03:43:33;35.40;;;17.42;;
27543;SDS011;17996;51.056;3.656;2023-04-24T03:45:59;34.08;;;18.90;;
27543;SDS011;17996;51.056;3.656;2023-04-24T03:48:25;43.25;;;18.42;;
27543;SDS011;17996;51.056;3.656;2023-04-24T03:50:51;31.75;;;18.08;;
27543;SDS011;17996;51.056;3.656;2023-04-24T03:53:17;43.83;;;18.65;;
27543;SDS011;17996;51.056;3.656;2023-04-24T03:55:42;40.90;;;18.98;;
27543;SDS011;17996;51.056;3.656;2023-04-24T03:58:08;34.15;;;18.38;;
27543;SDS011;17996;51.056;3.656;2023-04-24T04:00:34;46.90;;;18.67;;
27543;SDS011;17996;51.056;3.656;2023-04-24T04:02:59;43.15;;;19.30;;
27543;SDS011;17996;51.056;3.656;2023-04-24T04:05:25;45.10;;;19.88;;
27543;SDS011;17996;51.056;3.656;2023-04-24T04:07:51;43.05;;;18.65;;
27543;SDS011;17996;51.056;3.656;2023-04-24T04:10:17;31.52;;;17.92;;
27543;SDS011;17996;51.056;3.656;2023-04-24T04:12:42;50.28;;;21.02;;
27543;SDS011;17996;51.056;3.656;2023-04-24T04:15:08;51.33;;;19.55;;
27543;SDS011;17996;51.056;3.656;2023-04-24T04:17:34;43.80;;;20.02;;
27543;SDS011;17996;51.056;3.656;2023-04-24T04:20:00;37.78;;;19.00;;
27543;SDS011;17996;51.056;3.656;2023-04-24T04:22:26;32.92;;;16.55;;
27543;SDS011;17996;51.056;3.656;2023-04-24T04:24:52;37.35;;;18.05;;
27543;SDS011;17996;51.056;3.656;2023-04-24T04:27:18;37.72;;;18.08;;
27543;SDS011;17996;51.056;3.656;2023-04-24T04:29:44;35.00;;;18.00;;
27543;SDS011;17996;51.056;3.656;2023-04-24T04:32:09;30.30;;;15.77;;
27543;SDS011;17996;51.056;3.656;2023-04-24T04:34:35;40.35;;;19.40;;
27543;SDS011;17996;51.056;3.656;2023-04-24T04:37:02;35.45;;;17.55;;
27543;SDS011;17996;51.056;3.656;2023-04-24T04:39:28;34.22;;;16.50;;
27543;SDS011;17996;51.056;3.656;2023-04-24T04:41:55;31.75;;;17.65;;
27543;SDS011;17996;51.056;3.656;2023-04-24T04:44:20;35.53;;;17.80;;
27543;SDS011;17996;51.056;3.656;2023-04-24T04:46:46;33.90;;;17.75;;
27543;SDS011;17996;51.056;3.656;2023-04-24T04:49:12;32.28;;;18.02;;
27543;SDS011;17996;51.056;3.656;2023-04-24T04:51:38;33.10;;;16.85;;
27543;SDS011;17996;51.056;3.656;2023-04-24T04:54:03;39.00;;;18.30;;
27543;SDS011;17996;51.056;3.656;2023-04-24T04:56:29;37.60;;;19.17;;
27543;SDS011;17996;51.056;3.656;2023-04-24T04:58:55;37.45;;;18.30;;
27543;SDS011;17996;51.056;3.656;2023-04-24T05:01:21;39.00;;;19.00;;
27543;SDS011;17996;51.056;3.656;2023-04-24T05:03:48;45.33;;;20.33;;
27543;SDS011;17996;51.056;3.656;2023-04-24T05:06:13;37.75;;;19.27;;
27543;SDS011;17996;51.056;3.656;2023-04-24T05:08:40;35.97;;;19.75;;
27543;SDS011;17996;51.056;3.656;2023-04-24T05:11:05;40.30;;;19.83;;
27543;SDS011;17996;51.056;3.656;2023-04-24T05:13:31;39.25;;;20.33;;
27543;SDS011;17996;51.056;3.656;2023-04-24T05:15:57;35.67;;;19.70;;
27543;SDS011;17996;51.056;3.656;2023-04-24T05:18:23;37.85;;;18.75;;
27543;SDS011;17996;51.056;3.656;2023-04-24T05:20:49;37.88;;;20.65;;
27543;SDS011;17996;51.056;3.656;2023-04-24T05:23:15;44.78;;;19.65;;
27543;SDS011;17996;51.056;3.656;2023-04-24T05:25:40;37.47;;;19.90;;
27543;SDS011;17996;51.056;3.656;2023-04-24T05:28:06;40.25;;;20.25;;
27543;SDS011;17996;51.056;3.656;2023-04-24T05:30:32;31.77;;;19.58;;
27543;SDS011;17996;51.056;3.656;2023-04-24T05:32:58;39.53;;;21.05;;
27543;SDS011;17996;51.056;3.656;2023-04-24T05:35:23;51.90;;;22.75;;
27543;SDS011;17996;51.056;3.656;2023-04-24T05:37:50;51.92;;;24.55;;
27543;SDS011;17996;51.056;3.656;2023-04-24T05:40:15;43.72;;;22.67;;
27543;SDS011;17996;51.056;3.656;2023-04-24T05:42:41;52.85;;;22.33;;
27543;SDS011;17996;51.056;3.656;2023-04-24T05:45:07;62.05;;;24.02;;
27543;SDS011;17996;51.056;3.656;2023-04-24T05:47:34;59.65;;;24.95;;
27543;SDS011;17996;51.056;3.656;2023-04-24T05:50:00;45.92;;;23.67;;
27543;SDS011;17996;51.056;3.656;2023-04-24T05:52:25;51.45;;;24.13;;
27543;SDS011;17996;51.056;3.656;2023-04-24T05:54:51;57.42;;;24.08;;
27543;SDS011;17996;51.056;3.656;2023-04-24T05:57:17;57.47;;;25.55;;
27543;SDS011;17996;51.056;3.656;2023-04-24T05:59:42;55.05;;;26.67;;
27543;SDS011;17996;51.056;3.656;2023-04-24T06:02:08;60.58;;;26.25;;
27543;SDS011;17996;51.056;3.656;2023-04-24T06:04:34;47.05;;;25.00;;
27543;SDS011;17996;51.056;3.656;2023-04-24T06:07:00;61.67;;;24.42;;
27543;SDS011;17996;51.056;3.656;2023-04-24T06:09:26;53.33;;;25.10;;
27543;SDS011;17996;51.056;3.656;2023-04-24T06:11:51;55.60;;;24.52;;
27543;SDS011;17996;51.056;3.656;2023-04-24T06:14:21;52.40;;;26.80;;
27543;SDS011;17996;51.056;3.656;2023-04-24T06:16:47;54.25;;;24.90;;
27543;SDS011;17996;51.056;3.656;2023-04-24T06:19:13;65.68;;;25.98;;
27543;SDS011;17996;51.056;3.656;2023-04-24T06:21:38;62.00;;;23.20;;
27543;SDS011;17996;51.056;3.656;2023-04-24T06:24:04;51.55;;;22.00;;
27543;SDS011;17996;51.056;3.656;2023-04-24T06:26:30;55.28;;;22.83;;
27543;SDS011;17996;51.056;3.656;2023-04-24T06:28:56;43.97;;;19.98;;
27543;SDS011;17996;51.056;3.656;2023-04-24T06:31:23;44.95;;;20.38;;
27543;SDS011;17996;51.056;3.656;2023-04-24T06:33:49;51.30;;;18.70;;
27543;SDS011;17996;51.056;3.656;2023-04-24T06:36:15;40.13;;;16.73;;
27543;SDS011;17996;51.056;3.656;2023-04-24T06:38:41;41.22;;;17.58;;
27543;SDS011;17996;51.056;3.656;2023-04-24T06:41:06;34.13;;;18.60;;
27543;SDS011;17996;51.056;3.656;2023-04-24T06:43:32;47.92;;;20.27;;
27543;SDS011;17996;51.056;3.656;2023-04-24T06:45:59;46.45;;;19.48;;
27543;SDS011;17996;51.056;3.656;2023-04-24T06:48:25;40.25;;;19.25;;
27543;SDS011;17996;51.056;3.656;2023-04-24T06:50:51;49.50;;;19.45;;
27543;SDS011;17996;51.056;3.656;2023-04-24T06:53:17;49.70;;;21.02;;
27543;SDS011;17996;51.056;3.656;2023-04-24T06:55:43;54.90;;;18.70;;
27543;SDS011;17996;51.056;3.656;2023-04-24T06:58:11;38.30;;;16.10;;
27543;SDS011;17996;51.056;3.656;2023-04-24T07:00:37;40.88;;;15.23;;
27543;SDS011;17996;51.056;3.656;2023-04-24T07:03:03;48.22;;;16.20;;
27543;SDS011;17996;51.056;3.656;2023-04-24T07:05:30;39.92;;;15.25;;
27543;SDS011;17996;51.056;3.656;2023-04-24T07:07:58;35.38;;;14.15;;
27543;SDS011;17996;51.056;3.656;2023-04-24T07:10:24;34.00;;;12.40;;
27543;SDS011;17996;51.056;3.656;2023-04-24T07:12:52;29.90;;;11.27;;
27543;SDS011;17996;51.056;3.656;2023-04-24T07:15:17;31.58;;;11.38;;
27543;SDS011;17996;51.056;3.656;2023-04-24T07:17:43;37.05;;;11.52;;
27543;SDS011;17996;51.056;3.656;2023-04-24T07:20:10;27.95;;;11.45;;
27543;SDS011;17996;51.056;3.656;2023-04-24T07:22:37;47.85;;;14.13;;
27543;SDS011;17996;51.056;3.656;2023-04-24T07:25:04;29.83;;;12.05;;
27543;SDS011;17996;51.056;3.656;2023-04-24T07:27:30;41.03;;;13.85;;
27543;SDS011;17996;51.056;3.656;2023-04-24T07:29:56;29.73;;;11.20;;
27543;SDS011;17996;51.056;3.656;2023-04-24T07:32:21;29.15;;;10.82;;
27543;SDS011;17996;51.056;3.656;2023-04-24T07:34:47;24.90;;;10.73;;
27543;SDS011;17996;51.056;3.656;2023-04-24T07:37:12;30.90;;;10.15;;
27543;SDS011;17996;51.056;3.656;2023-04-24T07:39:38;25.00;;;11.73;;
27543;SDS011;17996;51.056;3.656;2023-04-24T07:42:04;28.23;;;10.05;;
27543;SDS011;17996;51.056;3.656;2023-04-24T07:44:30;28.67;;;11.07;;
27543;SDS011;17996;51.056;3.656;2023-04-24T07:46:55;30.58;;;10.20;;
27543;SDS011;17996;51.056;3.656;2023-04-24T07:49:21;34.08;;;10.77;;
27543;SDS011;17996;51.056;3.656;2023-04-24T07:51:47;30.27;;;9.75;;
27543;SDS011;17996;51.056;3.656;2023-04-24T07:54:12;31.90;;;9.70;;
27543;SDS011;17996;51.056;3.656;2023-04-24T07:56:38;30.05;;;11.07;;
27543;SDS011;17996;51.056;3.656;2023-04-24T07:59:04;34.88;;;10.05;;
27543;SDS011;17996;51.056;3.656;2023-04-24T08:01:30;27.88;;;10.05;;
27543;SDS011;17996;51.056;3.656;2023-04-24T08:03:56;32.95;;;9.05;;
27543;SDS011;17996;51.056;3.656;2023-04-24T08:06:22;23.52;;;8.43;;
27543;SDS011;17996;51.056;3.656;2023-04-24T08:08:48;24.05;;;8.95;;
27543;SDS011;17996;51.056;3.656;2023-04-24T08:11:13;32.42;;;9.20;;
27543;SDS011;17996;51.056;3.656;2023-04-24T08:13:39;24.30;;;7.72;;
27543;SDS011;17996;51.056;3.656;2023-04-24T08:16:05;25.67;;;8.75;;
27543;SDS011;17996;51.056;3.656;2023-04-24T08:18:30;34.05;;;7.78;;
27543;SDS011;17996;51.056;3.656;2023-04-24T08:20:56;27.42;;;7.78;;
27543;SDS011;17996;51.056;3.656;2023-04-24T08:23:26;39.95;;;8.27;;
27543;SDS011;17996;51.056;3.656;2023-04-24T08:25:52;20.20;;;7.63;;
27543;SDS011;17996;51.056;3.656;2023-04-24T08:28:18;19.90;;;6.55;;
27543;SDS011;17996;51.056;3.656;2023-04-24T08:30:45;19.48;;;6.60;;
27543;SDS011;17996;51.056;3.656;2023-04-24T08:33:19;17.38;;;7.30;;
27543;SDS011;17996;51.056;3.656;2023-04-24T08:35:45;20.55;;;6.25;;
27543;SDS011;17996;51.056;3.656;2023-04-24T08:38:11;22.90;;;5.50;;
27543;SDS011;17996;51.056;3.656;2023-04-24T08:40:37;18.85;;;5.68;;
27543;SDS011;17996;51.056;3.656;2023-04-24T08:43:03;21.92;;;5.63;;
27543;SDS011;17996;51.056;3.656;2023-04-24T08:45:29;17.42;;;5.30;;
27543;SDS011;17996;51.056;3.656;2023-04-24T08:47:55;16.23;;;6.15;;
27543;SDS011;17996;51.056;3.656;2023-04-24T08:50:24;16.40;;;5.68;;
27543;SDS011;17996;51.056;3.656;2023-04-24T08:52:51;19.83;;;6.28;;
27543;SDS011;17996;51.056;3.656;2023-04-24T08:55:20;18.20;;;7.10;;
27543;SDS011;17996;51.056;3.656;2023-04-24T08:57:50;18.17;;;7.07;;
27543;SDS011;17996;51.056;3.656;2023-04-24T09:00:18;15.90;;;7.50;;
27543;SDS011;17996;51.056;3.656;2023-04-24T09:02:47;17.13;;;6.22;;
27543;SDS011;17996;51.056;3.656;2023-04-24T09:05:16;15.30;;;6.40;;
27543;SDS011;17996;51.056;3.656;2023-04-24T09:07:44;15.77;;;6.88;;
27543;SDS011;17996;51.056;3.656;2023-04-24T09:10:11;17.15;;;6.85;;
27543;SDS011;17996;51.056;3.656;2023-04-24T09:12:38;15.48;;;6.03;;
27543;SDS011;17996;51.056;3.656;2023-04-24T09:15:03;15.38;;;5.93;;
27543;SDS011;17996;51.056;3.656;2023-04-24T09:17:31;19.63;;;6.65;;
27543;SDS011;17996;51.056;3.656;2023-04-24T09:19:58;15.38;;;6.30;;
27543;SDS011;17996;51.056;3.656;2023-04-24T09:22:24;15.95;;;5.22;;
27543;SDS011;17996;51.056;3.656;2023-04-24T09:24:59;16.00;;;6.20;;
27543;SDS011;17996;51.056;3.656;2023-04-24T09:27:32;22.02;;;6.20;;
27543;SDS011;17996;51.056;3.656;2023-04-24T09:29:59;18.55;;;6.43;;
27543;SDS011;17996;51.056;3.656;2023-04-24T09:32:25;17.05;;;6.00;;
27543;SDS011;17996;51.056;3.656;2023-04-24T09:35:08;13.15;;;5.63;;
27543;SDS011;17996;51.056;3.656;2023-04-24T09:37:40;11.60;;;5.75;;
27543;SDS011;17996;51.056;3.656;2023-04-24T09:40:11;12.75;;;5.63;;
27543;SDS011;17996;51.056;3.656;2023-04-24T09:42:46;21.25;;;6.30;;
27543;SDS011;17996;51.056;3.656;2023-04-24T09:45:20;16.48;;;6.13;;
27543;SDS011;17996;51.056;3.656;2023-04-24T09:47:46;17.15;;;5.68;;
27543;SDS011;17996;51.056;3.656;2023-04-24T09:50:18;13.25;;;5.28;;
27543;SDS011;17996;51.056;3.656;2023-04-24T09:52:45;20.67;;;5.72;;
27543;SDS011;17996;51.056;3.656;2023-04-24T09:55:14;12.73;;;6.00;;
27543;SDS011;17996;51.056;3.656;2023-04-24T09:57:53;15.90;;;6.32;;
27543;SDS011;17996;51.056;3.656;2023-04-24T10:00:24;20.10;;;6.00;;
27543;SDS011;17996;51.056;3.656;2023-04-24T10:03:01;19.90;;;6.00;;
27543;SDS011;17996;51.056;3.656;2023-04-24T10:05:30;15.88;;;5.47;;
27543;SDS011;17996;51.056;3.656;2023-04-24T10:08:05;10.60;;;4.82;;
27543;SDS011;17996;51.056;3.656;2023-04-24T10:10:33;10.13;;;4.93;;
27543;SDS011;17996;51.056;3.656;2023-04-24T10:13:11;18.73;;;5.93;;
27543;SDS011;17996;51.056;3.656;2023-04-24T10:15:40;12.98;;;5.90;;
27543;SDS011;17996;51.056;3.656;2023-04-24T10:18:06;13.27;;;4.53;;
27543;SDS011;17996;51.056;3.656;2023-04-24T10:20:34;16.38;;;5.50;;
27543;SDS011;17996;51.056;3.656;2023-04-24T10:23:03;11.18;;;5.22;;
27543;SDS011;17996;51.056;3.656;2023-04-24T10:25:30;9.75;;;4.80;;
27543;SDS011;17996;51.056;3.656;2023-04-24T10:27:58;16.02;;;5.03;;
27543;SDS011;17996;51.056;3.656;2023-04-24T10:30:25;12.77;;;5.57;;
27543;SDS011;17996;51.056;3.656;2023-04-24T10:32:52;18.13;;;5.70;;
27543;SDS011;17996;51.056;3.656;2023-04-24T10:35:19;10.20;;;5.50;;
27543;SDS011;17996;51.056;3.656;2023-04-24T10:37:51;12.43;;;4.93;;
27543;SDS011;17996;51.056;3.656;2023-04-24T10:40:54;15.80;;;5.40;;
27543;SDS011;17996;51.056;3.656;2023-04-24T10:43:13;15.48;;;4.90;;
27543;SDS011;17996;51.056;3.656;2023-04-24T10:45:42;14.68;;;6.00;;
27543;SDS011;17996;51.056;3.656;2023-04-24T10:48:26;18.98;;;4.95;;
27543;SDS011;17996;51.056;3.656;2023-04-24T10:50:52;13.95;;;5.03;;
27543;SDS011;17996;51.056;3.656;2023-04-24T10:53:20;12.48;;;4.80;;
27543;SDS011;17996;51.056;3.656;2023-04-24T10:56:02;19.90;;;5.63;;
27543;SDS011;17996;51.056;3.656;2023-04-24T10:58:44;15.32;;;5.78;;
27543;SDS011;17996;51.056;3.656;2023-04-24T11:03:56;11.35;;;4.93;;
27543;SDS011;17996;51.056;3.656;2023-04-24T11:06:31;13.48;;;5.07;;
27543;SDS011;17996;51.056;3.656;2023-04-24T11:09:06;11.65;;;4.43;;
27543;SDS011;17996;51.056;3.656;2023-04-24T11:11:34;12.13;;;5.10;;
27543;SDS011;17996;51.056;3.656;2023-04-24T11:14:03;10.32;;;5.10;;
27543;SDS011;17996;51.056;3.656;2023-04-24T11:19:09;12.32;;;5.13;;
27543;SDS011;17996;51.056;3.656;2023-04-24T11:26:57;9.80;;;5.28;;
27543;SDS011;17996;51.056;3.656;2023-04-24T11:29:46;22.67;;;4.75;;
27543;SDS011;17996;51.056;3.656;2023-04-24T11:32:33;18.42;;;5.88;;
27543;SDS011;17996;51.056;3.656;2023-04-24T11:35:08;9.25;;;3.88;;
27543;SDS011;17996;51.056;3.656;2023-04-24T11:37:40;11.73;;;4.07;;
27543;SDS011;17996;51.056;3.656;2023-04-24T11:40:08;9.25;;;3.83;;
27543;SDS011;17996;51.056;3.656;2023-04-24T11:42:39;12.60;;;3.80;;
27543;SDS011;17996;51.056;3.656;2023-04-24T11:45:21;16.33;;;3.42;;
27543;SDS011;17996;51.056;3.656;2023-04-24T11:47:48;8.10;;;3.47;;
27543;SDS011;17996;51.056;3.656;2023-04-24T11:50:16;9.57;;;3.58;;
27543;SDS011;17996;51.056;3.656;2023-04-24T11:52:43;14.63;;;4.18;;
27543;SDS011;17996;51.056;3.656;2023-04-24T11:57:52;15.18;;;3.08;;
27543;SDS011;17996;51.056;3.656;2023-04-24T12:00:22;9.15;;;3.75;;
27543;SDS011;17996;51.056;3.656;2023-04-24T12:02:49;8.18;;;3.38;;
27543;SDS011;17996;51.056;3.656;2023-04-24T12:05:34;16.45;;;3.88;;
27543;SDS011;17996;51.056;3.656;2023-04-24T12:08:00;9.07;;;3.38;;
27543;SDS011;17996;51.056;3.656;2023-04-24T12:10:27;8.68;;;3.92;;
27543;SDS011;17996;51.056;3.656;2023-04-24T12:12:55;10.43;;;3.67;;
27543;SDS011;17996;51.056;3.656;2023-04-24T12:15:23;13.52;;;3.47;;
27543;SDS011;17996;51.056;3.656;2023-04-24T12:17:53;13.30;;;3.38;;
27543;SDS011;17996;51.056;3.656;2023-04-24T12:20:29;7.45;;;2.78;;
27543;SDS011;17996;51.056;3.656;2023-04-24T12:22:57;7.78;;;2.83;;
27543;SDS011;17996;51.056;3.656;2023-04-24T12:25:25;9.27;;;2.40;;
27543;SDS011;17996;51.056;3.656;2023-04-24T12:28:08;10.27;;;2.70;;
27543;SDS011;17996;51.056;3.656;2023-04-24T12:30:44;5.78;;;2.22;;
27543;SDS011;17996;51.056;3.656;2023-04-24T12:33:20;12.27;;;2.53;;
27543;SDS011;17996;51.056;3.656;2023-04-24T12:35:47;9.77;;;3.05;;
27543;SDS011;17996;51.056;3.656;2023-04-24T12:38:13;8.75;;;2.22;;
27543;SDS011;17996;51.056;3.656;2023-04-24T12:40:40;13.93;;;2.50;;
27543;SDS011;17996;51.056;3.656;2023-04-24T12:43:14;5.80;;;2.47;;
27543;SDS011;17996;51.056;3.656;2023-04-24T12:45:40;18.92;;;3.17;;
27543;SDS011;17996;51.056;3.656;2023-04-24T12:48:06;8.70;;;2.97;;
27543;SDS011;17996;51.056;3.656;2023-04-24T12:50:32;11.10;;;2.35;;
27543;SDS011;17996;51.056;3.656;2023-04-24T12:52:57;9.80;;;2.42;;
27543;SDS011;17996;51.056;3.656;2023-04-24T12:55:23;6.97;;;2.20;;
27543;SDS011;17996;51.056;3.656;2023-04-24T12:57:48;7.55;;;3.05;;
27543;SDS011;17996;51.056;3.656;2023-04-24T13:00:14;11.43;;;2.83;;
27543;SDS011;17996;51.056;3.656;2023-04-24T13:02:41;12.02;;;2.63;;
27543;SDS011;17996;51.056;3.656;2023-04-24T13:05:08;11.95;;;2.85;;
27543;SDS011;17996;51.056;3.656;2023-04-24T13:07:34;8.98;;;2.15;;
27543;SDS011;17996;51.056;3.656;2023-04-24T13:10:00;7.97;;;2.40;;
27543;SDS011;17996;51.056;3.656;2023-04-24T13:12:25;8.88;;;2.42;;
27543;SDS011;17996;51.056;3.656;2023-04-24T13:14:52;11.10;;;2.42;;
27543;SDS011;17996;51.056;3.656;2023-04-24T13:17:18;5.35;;;2.25;;
27543;SDS011;17996;51.056;3.656;2023-04-24T13:19:44;4.80;;;1.92;;
27543;SDS011;17996;51.056;3.656;2023-04-24T13:22:11;13.30;;;2.53;;
27543;SDS011;17996;51.056;3.656;2023-04-24T13:24:37;8.20;;;2.50;;
27543;SDS011;17996;51.056;3.656;2023-04-24T13:27:05;7.22;;;1.90;;
27543;SDS011;17996;51.056;3.656;2023-04-24T13:29:31;7.55;;;1.92;;
27543;SDS011;17996;51.056;3.656;2023-04-24T13:31:57;4.72;;;1.60;;
27543;SDS011;17996;51.056;3.656;2023-04-24T13:34:23;5.57;;;1.80;;
27543;SDS011;17996;51.056;3.656;2023-04-24T13:36:50;8.30;;;2.53;;
27543;SDS011;17996;51.056;3.656;2023-04-24T13:39:17;5.65;;;1.85;;
27543;SDS011;17996;51.056;3.656;2023-04-24T13:41:43;7.78;;;1.75;;
27543;SDS011;17996;51.056;3.656;2023-04-24T13:44:10;6.00;;;1.83;;
27543;SDS011;17996;51.056;3.656;2023-04-24T13:46:35;5.18;;;1.83;;
27543;SDS011;17996;51.056;3.656;2023-04-24T13:49:02;5.60;;;1.88;;
27543;SDS011;17996;51.056;3.656;2023-04-24T13:51:28;7.50;;;2.22;;
27543;SDS011;17996;51.056;3.656;2023-04-24T13:53:55;4.65;;;1.83;;
27543;SDS011;17996;51.056;3.656;2023-04-24T13:56:21;7.95;;;1.98;;
27543;SDS011;17996;51.056;3.656;2023-04-24T13:58:47;12.07;;;2.30;;
27543;SDS011;17996;51.056;3.656;2023-04-24T14:01:13;4.00;;;1.30;;
27543;SDS011;17996;51.056;3.656;2023-04-24T14:03:40;8.20;;;2.42;;
27543;SDS011;17996;51.056;3.656;2023-04-24T14:06:07;4.15;;;1.52;;
27543;SDS011;17996;51.056;3.656;2023-04-24T14:08:32;8.98;;;1.88;;
27543;SDS011;17996;51.056;3.656;2023-04-24T14:10:58;4.25;;;1.42;;
27543;SDS011;17996;51.056;3.656;2023-04-24T14:13:24;5.15;;;1.52;;
27543;SDS011;17996;51.056;3.656;2023-04-24T14:15:49;4.97;;;1.40;;
27543;SDS011;17996;51.056;3.656;2023-04-24T14:18:17;6.68;;;1.48;;
27543;SDS011;17996;51.056;3.656;2023-04-24T14:20:43;4.63;;;1.33;;
27543;SDS011;17996;51.056;3.656;2023-04-24T14:23:09;6.90;;;1.50;;
27543;SDS011;17996;51.056;3.656;2023-04-24T14:25:35;5.85;;;1.40;;
27543;SDS011;17996;51.056;3.656;2023-04-24T14:28:01;5.15;;;1.42;;
27543;SDS011;17996;51.056;3.656;2023-04-24T14:30:27;3.13;;;1.27;;
27543;SDS011;17996;51.056;3.656;2023-04-24T14:32:52;5.18;;;1.25;;
27543;SDS011;17996;51.056;3.656;2023-04-24T14:35:18;5.35;;;1.55;;
27543;SDS011;17996;51.056;3.656;2023-04-24T14:37:44;7.55;;;1.60;;
27543;SDS011;17996;51.056;3.656;2023-04-24T14:40:10;5.22;;;1.60;;
27543;SDS011;17996;51.056;3.656;2023-04-24T14:42:36;7.30;;;2.15;;
27543;SDS011;17996;51.056;3.656;2023-04-24T14:45:02;4.07;;;1.35;;